createdAt,value
2017-05-05T00:00:07.590Z,94.78
2017-05-05T00:00:20.721Z,94.87
2017-05-05T00:00:33.341Z,94.78
2017-05-05T00:00:46.575Z,94.78
2017-05-05T00:00:59.666Z,94.87
2017-05-05T00:01:12.428Z,94.97
2017-05-05T00:01:25.148Z,94.87
2017-05-05T00:01:38.518Z,94.01
2017-05-05T00:01:51.662Z,94.1
2017-05-05T00:02:04.551Z,94.87
2017-05-05T00:02:17.728Z,94.87
2017-05-05T00:02:30.922Z,94.4
2017-05-05T00:02:44.095Z,94.78
2017-05-05T00:02:57.269Z,94.49
2017-05-05T00:03:10.415Z,94.3
2017-05-05T00:03:23.559Z,94.01
2017-05-05T00:03:36.760Z,94.01
2017-05-05T00:03:49.364Z,94.87
2017-05-05T00:04:02.013Z,94.1
2017-05-05T00:04:14.688Z,94.1
2017-05-05T00:04:27.853Z,94.97
2017-05-05T00:04:40.472Z,94.97
2017-05-05T00:04:53.594Z,94.97
2017-05-05T00:05:06.752Z,94.1
2017-05-05T00:05:19.901Z,94.97
2017-05-05T00:05:33.035Z,94.78
2017-05-05T00:05:47.571Z,94.4
2017-05-05T00:06:00.702Z,94.78
2017-05-05T00:06:13.322Z,94.1
2017-05-05T00:06:25.939Z,94.87
2017-05-05T00:06:38.139Z,94.87
2017-05-05T00:06:51.281Z,94.78
2017-05-05T00:07:04.698Z,94.87
2017-05-05T00:07:17.818Z,94.87
2017-05-05T00:07:30.969Z,94.87
2017-05-05T00:07:43.641Z,94.78
2017-05-05T00:07:56.786Z,94.68
2017-05-05T00:08:09.464Z,94.87
2017-05-05T00:08:22.594Z,94.87
2017-05-05T00:08:35.787Z,94.1
2017-05-05T00:08:48.468Z,94.78
2017-05-05T00:09:01.120Z,94.3
2017-05-05T00:09:14.241Z,94.3
2017-05-05T00:09:26.946Z,94.3
2017-05-05T00:09:40.084Z,94.2
2017-05-05T00:09:53.238Z,94.2
2017-05-05T00:10:05.900Z,94.2
2017-05-05T00:10:19.059Z,94.1
2017-05-05T00:10:31.696Z,94.2
2017-05-05T00:10:44.813Z,94.2
2017-05-05T00:10:57.926Z,94.3
2017-05-05T00:11:10.585Z,94.2
2017-05-05T00:11:23.786Z,94.4
2017-05-05T00:11:36.455Z,94.68
2017-05-05T00:11:49.602Z,94.4
2017-05-05T00:12:02.741Z,94.4
2017-05-05T00:12:15.887Z,94.2
2017-05-05T00:12:29.011Z,94.59
2017-05-05T00:12:42.174Z,94.59
2017-05-05T00:12:55.325Z,94.59
2017-05-05T00:13:08.002Z,93.91
2017-05-05T00:13:21.217Z,94.2
2017-05-05T00:13:34.356Z,94.01
2017-05-05T00:13:47.026Z,94.4
2017-05-05T00:13:59.995Z,94.2
2017-05-05T00:14:13.120Z,94.1
2017-05-05T00:14:26.299Z,94.1
2017-05-05T00:14:39.433Z,94.4
2017-05-05T00:14:52.592Z,94.3
2017-05-05T00:15:05.740Z,94.01
2017-05-05T00:15:18.908Z,94.01
2017-05-05T00:15:32.101Z,94.3
2017-05-05T00:15:45.234Z,94.4
2017-05-05T00:15:57.364Z,94.1
2017-05-05T00:16:10.500Z,94.2
2017-05-05T00:16:23.613Z,94.2
2017-05-05T00:16:36.799Z,94.4
2017-05-05T00:16:49.426Z,94.3
2017-05-05T00:17:02.590Z,93.62
2017-05-05T00:17:15.240Z,93.82
2017-05-05T00:17:28.367Z,93.43
2017-05-05T00:17:41.040Z,93.53
2017-05-05T00:17:54.157Z,93.53
2017-05-05T00:18:07.343Z,93.72
2017-05-05T00:18:20.461Z,93.72
2017-05-05T00:18:33.069Z,93.33
2017-05-05T00:18:45.686Z,93.62
2017-05-05T00:18:58.810Z,93.24
2017-05-05T00:19:11.444Z,93.33
2017-05-05T00:19:24.121Z,93.43
2017-05-05T00:19:37.305Z,93.53
2017-05-05T00:19:50.387Z,93.43
2017-05-05T00:20:03.462Z,93.53
2017-05-05T00:20:16.570Z,93.24
2017-05-05T00:20:29.721Z,93.43
2017-05-05T00:20:42.840Z,93.62
2017-05-05T00:20:55.992Z,93.72
2017-05-05T00:21:09.116Z,93.72
2017-05-05T00:21:21.770Z,93.62
2017-05-05T00:21:34.431Z,93.72
2017-05-05T00:21:47.552Z,93.62
2017-05-05T00:22:00.664Z,93.62
2017-05-05T00:22:13.801Z,93.72
2017-05-05T00:22:26.977Z,93.72
2017-05-05T00:22:40.092Z,93.62
2017-05-05T00:22:53.249Z,93.62
2017-05-05T00:23:05.894Z,93.62
2017-05-05T00:23:19.075Z,93.62
2017-05-05T00:23:32.289Z,93.62
2017-05-05T00:23:45.465Z,93.53
2017-05-05T00:23:58.684Z,93.82
2017-05-05T00:24:11.361Z,93.53
2017-05-05T00:24:24.554Z,93.82
2017-05-05T00:24:37.719Z,92.85
2017-05-05T00:24:50.852Z,93.72
2017-05-05T00:25:04.019Z,93.05
2017-05-05T00:25:16.187Z,93.72
2017-05-05T00:25:28.817Z,93.24
2017-05-05T00:25:41.490Z,93.15
2017-05-05T00:25:54.603Z,92.95
2017-05-05T00:26:07.745Z,93.24
2017-05-05T00:26:19.939Z,93.33
2017-05-05T00:26:33.056Z,93.24
2017-05-05T00:26:46.186Z,93.05
2017-05-05T00:26:59.348Z,93.33
2017-05-05T00:27:12.518Z,93.33
2017-05-05T00:27:25.178Z,93.24
2017-05-05T00:27:38.342Z,93.33
2017-05-05T00:27:51.544Z,93.24
2017-05-05T00:28:04.684Z,93.33
2017-05-05T00:28:17.378Z,93.24
2017-05-05T00:28:30.066Z,93.53
2017-05-05T00:28:43.238Z,93.05
2017-05-05T00:28:55.931Z,93.24
2017-05-05T00:29:09.067Z,93.24
2017-05-05T00:29:21.904Z,93.19
2017-05-05T00:29:35.087Z,93.24
2017-05-05T00:29:48.233Z,93.43
2017-05-05T00:30:00.893Z,93.43
2017-05-05T00:30:13.554Z,93.33
2017-05-05T00:30:26.698Z,93.24
2017-05-05T00:30:39.908Z,92.71
2017-05-05T00:30:53.070Z,93.1
2017-05-05T00:31:06.249Z,92.76
2017-05-05T00:31:19.002Z,92.95
2017-05-05T00:31:32.183Z,92.95
2017-05-05T00:31:45.677Z,93.15
2017-05-05T00:31:57.849Z,92.95
2017-05-05T00:32:10.518Z,93.29
2017-05-05T00:32:23.693Z,93.33
2017-05-05T00:32:36.851Z,93.15
2017-05-05T00:32:50.014Z,92.33
2017-05-05T00:33:03.303Z,92.47
2017-05-05T00:33:15.953Z,92.52
2017-05-05T00:33:29.087Z,92.33
2017-05-05T00:33:41.688Z,92.43
2017-05-05T00:33:54.796Z,92.52
2017-05-05T00:34:07.972Z,92.52
2017-05-05T00:34:19.960Z,92.52
2017-05-05T00:34:33.112Z,92.61
2017-05-05T00:34:46.227Z,92.52
2017-05-05T00:34:59.479Z,92.81
2017-05-05T00:35:12.682Z,92.61
2017-05-05T00:35:25.312Z,92.61
2017-05-05T00:35:38.457Z,92.23
2017-05-05T00:35:51.600Z,92.52
2017-05-05T00:36:04.209Z,91.94
2017-05-05T00:36:16.355Z,91.94
2017-05-05T00:36:29.509Z,92.23
2017-05-05T00:36:42.711Z,92.23
2017-05-05T00:36:55.984Z,91.94
2017-05-05T00:37:08.650Z,92.04
2017-05-05T00:37:21.784Z,91.94
2017-05-05T00:37:33.939Z,92.04
2017-05-05T00:37:47.140Z,92.13
2017-05-05T00:38:00.349Z,92.33
2017-05-05T00:38:13.469Z,92.43
2017-05-05T00:38:26.129Z,92.13
2017-05-05T00:38:39.291Z,92.43
2017-05-05T00:38:51.925Z,92.33
2017-05-05T00:39:04.566Z,91.66
2017-05-05T00:39:17.246Z,91.85
2017-05-05T00:39:29.897Z,91.66
2017-05-05T00:39:42.571Z,91.66
2017-05-05T00:39:55.719Z,92.04
2017-05-05T00:40:08.886Z,91.94
2017-05-05T00:40:21.507Z,91.75
2017-05-05T00:40:34.655Z,91.75
2017-05-05T00:40:47.774Z,92.23
2017-05-05T00:41:00.893Z,91.17
2017-05-05T00:41:13.550Z,91.75
2017-05-05T00:41:26.735Z,91.27
2017-05-05T00:41:39.844Z,91.46
2017-05-05T00:41:53.066Z,91.36
2017-05-05T00:42:06.217Z,91.36
2017-05-05T00:42:17.854Z,91.36
2017-05-05T00:42:31.036Z,91.56
2017-05-05T00:42:44.218Z,91.36
2017-05-05T00:42:57.360Z,91.36
2017-05-05T00:43:10.467Z,91.36
2017-05-05T00:43:23.599Z,91.36
2017-05-05T00:43:36.255Z,91.75
2017-05-05T00:43:49.484Z,91.66
2017-05-05T00:44:02.111Z,91.46
2017-05-05T00:44:14.240Z,91.75
2017-05-05T00:44:27.407Z,91.56
2017-05-05T00:44:40.518Z,91.75
2017-05-05T00:44:53.649Z,91.46
2017-05-05T00:45:06.288Z,91.46
2017-05-05T00:45:18.885Z,91.36
2017-05-05T00:45:32.072Z,91.46
2017-05-05T00:45:44.767Z,91.56
2017-05-05T00:45:57.909Z,91.36
2017-05-05T00:46:10.574Z,91.36
2017-05-05T00:46:23.749Z,91.27
2017-05-05T00:46:36.943Z,91.46
2017-05-05T00:46:49.644Z,91.27
2017-05-05T00:47:02.061Z,91.27
2017-05-05T00:47:15.215Z,91.46
2017-05-05T00:47:28.370Z,91.36
2017-05-05T00:47:41.552Z,91.36
2017-05-05T00:47:54.725Z,91.46
2017-05-05T00:48:07.870Z,91.56
2017-05-05T00:48:21.029Z,91.36
2017-05-05T00:48:33.759Z,91.46
2017-05-05T00:48:46.948Z,91.46
2017-05-05T00:48:59.684Z,91.27
2017-05-05T00:49:12.402Z,91.46
2017-05-05T00:49:25.558Z,91.17
2017-05-05T00:49:38.711Z,91.36
2017-05-05T00:49:51.893Z,91.46
2017-05-05T00:50:05.059Z,91.56
2017-05-05T00:50:18.243Z,91.36
2017-05-05T00:50:31.417Z,91.46
2017-05-05T00:50:44.588Z,91.36
2017-05-05T00:50:57.734Z,91.36
2017-05-05T00:51:10.897Z,91.36
2017-05-05T00:51:24.130Z,91.56
2017-05-05T00:51:37.336Z,91.27
2017-05-05T00:51:50.517Z,91.08
2017-05-05T00:52:03.692Z,91.27
2017-05-05T00:52:16.844Z,91.36
2017-05-05T00:52:30.066Z,91.56
2017-05-05T00:52:43.253Z,91.27
2017-05-05T00:52:56.455Z,91.27
2017-05-05T00:53:09.590Z,91.46
2017-05-05T00:53:22.271Z,91.27
2017-05-05T00:53:36.832Z,91.46
2017-05-05T00:53:49.927Z,91.27
2017-05-05T00:54:03.138Z,91.36
2017-05-05T00:54:16.244Z,91.17
2017-05-05T00:54:29.385Z,91.36
2017-05-05T00:54:42.551Z,91.36
2017-05-05T00:54:55.731Z,91.46
2017-05-05T00:55:08.874Z,91.36
2017-05-05T00:55:21.992Z,91.46
2017-05-05T00:55:34.602Z,91.36
2017-05-05T00:55:47.795Z,91.46
2017-05-05T00:56:00.459Z,91.36
2017-05-05T00:56:13.591Z,91.36
2017-05-05T00:56:26.764Z,91.27
2017-05-05T00:56:39.938Z,91.17
2017-05-05T00:56:53.073Z,91.46
2017-05-05T00:57:05.210Z,91.36
2017-05-05T00:57:18.343Z,91.46
2017-05-05T00:57:31.510Z,91.46
2017-05-05T00:57:44.709Z,91.36
2017-05-05T00:57:57.883Z,91.27
2017-05-05T00:58:10.602Z,91.36
2017-05-05T00:58:23.800Z,91.36
2017-05-05T00:58:36.952Z,91.27
2017-05-05T00:58:50.118Z,91.36
2017-05-05T00:59:03.300Z,91.66
2017-05-05T00:59:16.526Z,91.27
2017-05-05T00:59:29.688Z,91.56
2017-05-05T00:59:42.837Z,91.56
2017-05-05T00:59:54.984Z,91.36
2017-05-05T01:00:08.200Z,91.27
2017-05-05T01:00:21.371Z,91.56
2017-05-05T01:00:34.060Z,91.46
2017-05-05T01:00:46.715Z,91.27
2017-05-05T01:00:59.913Z,91.46
2017-05-05T01:01:12.576Z,91.46
2017-05-05T01:01:25.262Z,91.36
2017-05-05T01:01:37.931Z,91.17
2017-05-05T01:01:51.103Z,91.46
2017-05-05T01:02:03.938Z,91.17
2017-05-05T01:02:15.555Z,91.36
2017-05-05T01:02:28.683Z,91.46
2017-05-05T01:02:41.808Z,91.46
2017-05-05T01:02:54.992Z,91.46
2017-05-05T01:03:07.134Z,91.17
2017-05-05T01:03:19.326Z,91.17
2017-05-05T01:03:32.526Z,91.27
2017-05-05T01:03:45.632Z,90.89
2017-05-05T01:03:58.323Z,91.17
2017-05-05T01:04:10.941Z,90.98
2017-05-05T01:04:24.081Z,91.36
2017-05-05T01:04:37.222Z,91.08
2017-05-05T01:04:50.339Z,91.46
2017-05-05T01:05:02.482Z,91.17
2017-05-05T01:05:15.151Z,90.98
2017-05-05T01:05:28.317Z,91.08
2017-05-05T01:05:41.401Z,91.17
2017-05-05T01:05:54.588Z,91.36
2017-05-05T01:06:07.226Z,91.08
2017-05-05T01:06:20.445Z,91.27
2017-05-05T01:06:33.599Z,91.17
2017-05-05T01:06:46.269Z,91.36
2017-05-05T01:06:59.054Z,91.36
2017-05-05T01:07:12.229Z,91.17
2017-05-05T01:07:25.397Z,91.27
2017-05-05T01:07:38.516Z,91.46
2017-05-05T01:07:51.196Z,91.17
2017-05-05T01:08:03.830Z,91.27
2017-05-05T01:08:16.497Z,91.46
2017-05-05T01:08:29.629Z,91.46
2017-05-05T01:08:42.801Z,91.27
2017-05-05T01:08:55.946Z,91.36
2017-05-05T01:09:09.079Z,90.59
2017-05-05T01:09:22.200Z,91.36
2017-05-05T01:09:35.329Z,90.89
2017-05-05T01:09:48.476Z,91.27
2017-05-05T01:10:01.602Z,91.27
2017-05-05T01:10:14.756Z,90.89
2017-05-05T01:10:27.953Z,90.98
2017-05-05T01:10:41.179Z,90.5
2017-05-05T01:10:53.872Z,91.36
2017-05-05T01:11:07.022Z,91.17
2017-05-05T01:11:19.120Z,90.98
2017-05-05T01:11:31.748Z,90.79
2017-05-05T01:11:44.381Z,90.79
2017-05-05T01:11:57.525Z,90.59
2017-05-05T01:12:10.735Z,90.98
2017-05-05T01:12:22.925Z,90.98
2017-05-05T01:12:35.560Z,90.98
2017-05-05T01:12:48.661Z,91.17
2017-05-05T01:13:01.271Z,90.98
2017-05-05T01:13:14.452Z,90.55
2017-05-05T01:13:27.108Z,91.6
2017-05-05T01:13:40.276Z,90.83
2017-05-05T01:13:53.442Z,90.93
2017-05-05T01:14:06.607Z,91.03
2017-05-05T01:14:19.733Z,90.64
2017-05-05T01:14:32.856Z,90.73
2017-05-05T01:14:46.045Z,91.22
2017-05-05T01:14:59.176Z,91.03
2017-05-05T01:15:11.806Z,90.83
2017-05-05T01:15:24.428Z,90.83
2017-05-05T01:15:37.591Z,91.03
2017-05-05T01:15:50.750Z,90.64
2017-05-05T01:16:03.922Z,90.83
2017-05-05T01:16:16.105Z,90.93
2017-05-05T01:16:28.765Z,91.13
2017-05-05T01:16:41.431Z,90.73
2017-05-05T01:16:54.548Z,90.83
2017-05-05T01:17:07.445Z,91.03
2017-05-05T01:17:20.588Z,90.73
2017-05-05T01:17:33.251Z,90.64
2017-05-05T01:17:46.442Z,91.13
2017-05-05T01:17:59.042Z,90.73
2017-05-05T01:18:12.240Z,90.73
2017-05-05T01:18:25.343Z,91.13
2017-05-05T01:18:37.448Z,90.73
2017-05-05T01:18:50.532Z,90.83
2017-05-05T01:19:03.619Z,90.64
2017-05-05T01:19:15.765Z,90.73
2017-05-05T01:19:27.411Z,91.03
2017-05-05T01:19:40.547Z,91.13
2017-05-05T01:19:53.217Z,90.64
2017-05-05T01:20:05.839Z,90.83
2017-05-05T01:20:18.976Z,91.13
2017-05-05T01:20:31.640Z,91.03
2017-05-05T01:20:44.848Z,90.83
2017-05-05T01:20:58.068Z,90.83
2017-05-05T01:21:10.740Z,91.03
2017-05-05T01:21:23.878Z,90.55
2017-05-05T01:21:36.535Z,90.73
2017-05-05T01:21:49.196Z,91.22
2017-05-05T01:22:01.860Z,90.83
2017-05-05T01:22:15.026Z,91.13
2017-05-05T01:22:28.144Z,90.55
2017-05-05T01:22:41.292Z,90.83
2017-05-05T01:22:54.478Z,90.35
2017-05-05T01:23:07.643Z,91.13
2017-05-05T01:23:20.299Z,90.73
2017-05-05T01:23:32.953Z,90.73
2017-05-05T01:23:46.148Z,90.73
2017-05-05T01:23:58.313Z,90.93
2017-05-05T01:24:11.479Z,91.13
2017-05-05T01:24:24.609Z,90.93
2017-05-05T01:24:37.795Z,91.03
2017-05-05T01:24:50.967Z,90.55
2017-05-05T01:25:04.093Z,90.73
2017-05-05T01:25:16.763Z,90.93
2017-05-05T01:25:29.951Z,90.83
2017-05-05T01:25:43.093Z,90.16
2017-05-05T01:25:56.288Z,90.83
2017-05-05T01:26:08.419Z,90.83
2017-05-05T01:26:21.595Z,90.73
2017-05-05T01:26:34.734Z,90.73
2017-05-05T01:26:47.872Z,90.45
2017-05-05T01:27:00.984Z,90.26
2017-05-05T01:27:13.670Z,90.35
2017-05-05T01:27:26.832Z,90.02
2017-05-05T01:27:39.454Z,90.02
2017-05-05T01:27:52.623Z,89.73
2017-05-05T01:28:05.309Z,89.64
2017-05-05T01:28:17.949Z,89.54
2017-05-05T01:28:30.579Z,89.54
2017-05-05T01:28:45.147Z,89.54
2017-05-05T01:28:58.321Z,89.92
2017-05-05T01:29:11.462Z,89.25
2017-05-05T01:29:24.652Z,89.54
2017-05-05T01:29:37.823Z,89.44
2017-05-05T01:29:51.002Z,88.77
2017-05-05T01:30:04.137Z,88.77
2017-05-05T01:30:16.286Z,88.57
2017-05-05T01:30:29.392Z,88.57
2017-05-05T01:30:42.542Z,88.29
2017-05-05T01:30:55.718Z,88.67
2017-05-05T01:31:08.470Z,88.48
2017-05-05T01:31:21.633Z,88.67
2017-05-05T01:31:34.781Z,87.81
2017-05-05T01:31:47.913Z,88
2017-05-05T01:32:01.066Z,87.81
2017-05-05T01:32:14.491Z,87.52
2017-05-05T01:32:27.666Z,87.52
2017-05-05T01:32:40.813Z,87.33
2017-05-05T01:32:53.441Z,86.94
2017-05-05T01:33:06.592Z,86.85
2017-05-05T01:33:19.230Z,86.65
2017-05-05T01:33:31.331Z,86.85
2017-05-05T01:33:44.471Z,86.94
2017-05-05T01:33:57.608Z,86.94
2017-05-05T01:34:10.752Z,86.36
2017-05-05T01:34:23.896Z,86.52
2017-05-05T01:34:37.083Z,86.18
2017-05-05T01:34:49.781Z,86.04
2017-05-05T01:35:02.930Z,86.18
2017-05-05T01:35:15.073Z,86.18
2017-05-05T01:35:28.311Z,86.08
2017-05-05T01:35:40.973Z,85.55
2017-05-05T01:35:54.088Z,85.88
2017-05-05T01:36:06.740Z,85.84
2017-05-05T01:36:19.862Z,85.21
2017-05-05T01:36:32.993Z,85.98
2017-05-05T01:36:46.172Z,85.69
2017-05-05T01:36:59.354Z,85.5
2017-05-05T01:37:12.654Z,85.31
2017-05-05T01:37:25.784Z,85.5
2017-05-05T01:37:38.417Z,85.21
2017-05-05T01:37:51.516Z,85.21
2017-05-05T01:38:04.645Z,85.36
2017-05-05T01:38:17.317Z,85.11
2017-05-05T01:38:29.912Z,85.31
2017-05-05T01:38:43.062Z,84.73
2017-05-05T01:38:55.694Z,85.02
2017-05-05T01:39:08.877Z,84.25
2017-05-05T01:39:21.993Z,84.34
2017-05-05T01:39:35.131Z,84.16
2017-05-05T01:39:48.318Z,84.11
2017-05-05T01:40:00.972Z,83.92
2017-05-05T01:40:14.157Z,83.96
2017-05-05T01:40:26.760Z,84.21
2017-05-05T01:40:39.946Z,83.83
2017-05-05T01:40:52.637Z,83.48
2017-05-05T01:41:05.794Z,83.34
2017-05-05T01:41:18.976Z,83.34
2017-05-05T01:41:32.159Z,83.39
2017-05-05T01:41:45.323Z,82.96
2017-05-05T01:41:57.951Z,82.86
2017-05-05T01:42:10.105Z,82.96
2017-05-05T01:42:22.763Z,82.29
2017-05-05T01:42:35.924Z,82.09
2017-05-05T01:42:48.611Z,82.29
2017-05-05T01:43:01.741Z,82.19
2017-05-05T01:43:14.368Z,82.57
2017-05-05T01:43:27.568Z,82.48
2017-05-05T01:43:40.686Z,81.99
2017-05-05T01:43:53.363Z,82.19
2017-05-05T01:44:06.522Z,81.71
2017-05-05T01:44:19.625Z,81.81
2017-05-05T01:44:32.689Z,81.81
2017-05-05T01:44:45.786Z,81.99
2017-05-05T01:44:57.905Z,81.71
2017-05-05T01:45:10.524Z,81.42
2017-05-05T01:45:23.217Z,81.23
2017-05-05T01:45:35.837Z,81.42
2017-05-05T01:45:49.032Z,81.23
2017-05-05T01:46:01.660Z,81.13
2017-05-05T01:46:13.805Z,81.32
2017-05-05T01:46:26.438Z,81.42
2017-05-05T01:46:39.632Z,81.23
2017-05-05T01:46:52.272Z,80.84
2017-05-05T01:47:04.924Z,80.65
2017-05-05T01:47:17.757Z,81.23
2017-05-05T01:47:30.866Z,81.04
2017-05-05T01:47:43.998Z,81.13
2017-05-05T01:47:57.193Z,80.75
2017-05-05T01:48:09.867Z,80.94
2017-05-05T01:48:23.039Z,81.13
2017-05-05T01:48:36.138Z,80.55
2017-05-05T01:48:49.279Z,80.65
2017-05-05T01:49:02.445Z,80.75
2017-05-05T01:49:15.627Z,80.65
2017-05-05T01:49:28.812Z,80.75
2017-05-05T01:49:41.964Z,80.84
2017-05-05T01:49:55.125Z,81.04
2017-05-05T01:50:07.738Z,80.65
2017-05-05T01:50:20.841Z,80.46
2017-05-05T01:50:33.439Z,80.65
2017-05-05T01:50:46.077Z,80.75
2017-05-05T01:50:59.182Z,81.04
2017-05-05T01:51:11.816Z,80.94
2017-05-05T01:51:24.997Z,80.27
2017-05-05T01:51:38.218Z,80.46
2017-05-05T01:51:51.462Z,80.46
2017-05-05T01:52:04.618Z,80.46
2017-05-05T01:52:17.266Z,80.27
2017-05-05T01:52:29.966Z,80.55
2017-05-05T01:52:43.116Z,80.46
2017-05-05T01:52:56.253Z,80.65
2017-05-05T01:53:08.936Z,80.75
2017-05-05T01:53:22.098Z,80.36
2017-05-05T01:53:35.255Z,80.46
2017-05-05T01:53:48.452Z,80.65
2017-05-05T01:54:01.648Z,80.07
2017-05-05T01:54:14.301Z,80.55
2017-05-05T01:54:26.931Z,79.98
2017-05-05T01:54:40.117Z,80.07
2017-05-05T01:54:53.282Z,80.36
2017-05-05T01:55:05.918Z,80.27
2017-05-05T01:55:19.077Z,80.17
2017-05-05T01:55:32.900Z,80.36
2017-05-05T01:55:46.067Z,80.27
2017-05-05T01:55:59.245Z,80.27
2017-05-05T01:56:12.402Z,80.22
2017-05-05T01:56:25.512Z,80.13
2017-05-05T01:56:38.633Z,80.13
2017-05-05T01:56:51.772Z,80.17
2017-05-05T01:57:04.948Z,80.22
2017-05-05T01:57:17.599Z,80.17
2017-05-05T01:57:30.802Z,80.04
2017-05-05T01:57:43.431Z,80.04
2017-05-05T01:57:56.622Z,80.04
2017-05-05T01:58:08.755Z,80.22
2017-05-05T01:58:21.914Z,79.55
2017-05-05T01:58:35.059Z,79.55
2017-05-05T01:58:48.215Z,80.32
2017-05-05T01:59:01.364Z,79.46
2017-05-05T01:59:14.031Z,79.55
2017-05-05T01:59:26.735Z,79.65
2017-05-05T01:59:39.905Z,79.65
2017-05-05T01:59:53.060Z,79.46
2017-05-05T02:00:06.231Z,79.55
2017-05-05T02:00:18.387Z,79.27
2017-05-05T02:00:31.552Z,79.55
2017-05-05T02:00:44.712Z,79.46
2017-05-05T02:00:57.368Z,79.55
2017-05-05T02:01:09.495Z,79.46
2017-05-05T02:01:22.138Z,79.55
2017-05-05T02:01:35.293Z,79.36
2017-05-05T02:01:48.381Z,79.46
2017-05-05T02:02:01.009Z,79.55
2017-05-05T02:02:13.679Z,79.55
2017-05-05T02:02:27.070Z,79.55
2017-05-05T02:02:40.219Z,79.55
2017-05-05T02:02:52.349Z,79.17
2017-05-05T02:03:05.024Z,79.17
2017-05-05T02:03:18.228Z,79.27
2017-05-05T02:03:31.367Z,79.27
2017-05-05T02:03:44.018Z,78.88
2017-05-05T02:03:57.277Z,79.07
2017-05-05T02:04:09.929Z,78.4
2017-05-05T02:04:23.121Z,78.3
2017-05-05T02:04:35.791Z,78.11
2017-05-05T02:04:48.936Z,77.92
2017-05-05T02:05:02.070Z,78.21
2017-05-05T02:05:14.719Z,77.92
2017-05-05T02:05:27.832Z,78.3
2017-05-05T02:05:40.960Z,78.21
2017-05-05T02:05:54.086Z,78.21
2017-05-05T02:06:07.249Z,78.21
2017-05-05T02:06:20.358Z,78.21
2017-05-05T02:06:33.463Z,78.21
2017-05-05T02:06:46.613Z,78.11
2017-05-05T02:06:59.784Z,78.02
2017-05-05T02:07:12.886Z,78.3
2017-05-05T02:07:26.204Z,78.02
2017-05-05T02:07:39.404Z,78.3
2017-05-05T02:07:52.527Z,78.21
2017-05-05T02:08:04.685Z,78.21
2017-05-05T02:08:16.858Z,78.88
2017-05-05T02:08:29.489Z,78.98
2017-05-05T02:08:42.654Z,78.3
2017-05-05T02:08:55.278Z,78.3
2017-05-05T02:09:08.401Z,78.5
2017-05-05T02:09:21.023Z,79.07
2017-05-05T02:09:34.128Z,78.69
2017-05-05T02:09:47.249Z,78.78
2017-05-05T02:09:59.909Z,78.98
2017-05-05T02:10:13.015Z,78.88
2017-05-05T02:10:25.642Z,78.69
2017-05-05T02:10:38.742Z,78.69
2017-05-05T02:10:51.928Z,78.78
2017-05-05T02:11:04.559Z,78.69
2017-05-05T02:11:17.686Z,78.59
2017-05-05T02:11:30.792Z,78.3
2017-05-05T02:11:43.921Z,78.21
2017-05-05T02:11:56.620Z,78.11
2017-05-05T02:12:08.785Z,78.21
2017-05-05T02:12:21.918Z,78.21
2017-05-05T02:12:35.065Z,78.5
2017-05-05T02:12:47.697Z,78.21
2017-05-05T02:13:00.800Z,78.3
2017-05-05T02:13:13.988Z,78.21
2017-05-05T02:13:27.175Z,78.5
2017-05-05T02:13:40.271Z,78.4
2017-05-05T02:13:53.401Z,78.02
2017-05-05T02:14:06.029Z,78.11
2017-05-05T02:14:19.208Z,77.73
2017-05-05T02:14:31.905Z,77.63
2017-05-05T02:14:45.106Z,77.63
2017-05-05T02:14:57.734Z,77.53
2017-05-05T02:15:09.821Z,77.63
2017-05-05T02:15:22.967Z,77.44
2017-05-05T02:15:36.116Z,77.73
2017-05-05T02:15:49.215Z,77.53
2017-05-05T02:16:02.346Z,77.73
2017-05-05T02:16:14.474Z,77.92
2017-05-05T02:16:27.713Z,77.73
2017-05-05T02:16:40.812Z,77.83
2017-05-05T02:16:53.953Z,77.92
2017-05-05T02:17:07.088Z,77.63
2017-05-05T02:17:20.234Z,77.53
2017-05-05T02:17:33.710Z,77.44
2017-05-05T02:17:46.871Z,77.15
2017-05-05T02:18:00.010Z,77.44
2017-05-05T02:18:13.185Z,77.53
2017-05-05T02:18:25.297Z,77.34
2017-05-05T02:18:38.444Z,77.44
2017-05-05T02:18:51.643Z,77.44
2017-05-05T02:19:04.787Z,77.25
2017-05-05T02:19:17.485Z,77.25
2017-05-05T02:19:31.325Z,78.02
2017-05-05T02:19:44.525Z,77.73
2017-05-05T02:19:57.729Z,77.73
2017-05-05T02:20:10.877Z,77.63
2017-05-05T02:20:24.063Z,77.92
2017-05-05T02:20:37.168Z,77.34
2017-05-05T02:20:49.835Z,77.73
2017-05-05T02:21:03.026Z,77.83
2017-05-05T02:21:16.184Z,77.53
2017-05-05T02:21:28.822Z,77.63
2017-05-05T02:21:41.434Z,77.63
2017-05-05T02:21:54.583Z,77.44
2017-05-05T02:22:07.735Z,77.63
2017-05-05T02:22:19.881Z,77.25
2017-05-05T02:22:33.008Z,77.63
2017-05-05T02:22:46.128Z,77.53
2017-05-05T02:22:59.380Z,77.53
2017-05-05T02:23:12.574Z,77.53
2017-05-05T02:23:25.731Z,77.06
2017-05-05T02:23:38.887Z,76.86
2017-05-05T02:23:52.058Z,76.57
2017-05-05T02:24:05.269Z,76.48
2017-05-05T02:24:18.412Z,76.25
2017-05-05T02:24:31.594Z,76.09
2017-05-05T02:24:44.763Z,75.96
2017-05-05T02:24:57.912Z,75.77
2017-05-05T02:25:10.063Z,75.52
2017-05-05T02:25:23.226Z,75.38
2017-05-05T02:25:35.895Z,75.67
2017-05-05T02:25:48.505Z,75.38
2017-05-05T02:26:01.116Z,75
2017-05-05T02:26:13.753Z,75.23
2017-05-05T02:26:26.961Z,75
2017-05-05T02:26:40.074Z,75.2
2017-05-05T02:26:53.233Z,74.81
2017-05-05T02:27:06.440Z,74.71
2017-05-05T02:27:19.048Z,74.75
2017-05-05T02:27:32.140Z,74.9
2017-05-05T02:27:44.795Z,75.1
2017-05-05T02:27:58.029Z,74.75
2017-05-05T02:28:10.729Z,75.2
2017-05-05T02:28:22.843Z,75.2
2017-05-05T02:28:35.994Z,75.52
2017-05-05T02:28:49.160Z,75.29
2017-05-05T02:29:02.332Z,75.1
2017-05-05T02:29:15.439Z,75.23
2017-05-05T02:29:28.054Z,75.2
2017-05-05T02:29:41.207Z,75.29
2017-05-05T02:29:54.371Z,75.52
2017-05-05T02:30:07.559Z,74.71
2017-05-05T02:30:20.707Z,75.13
2017-05-05T02:30:33.861Z,74.9
2017-05-05T02:30:47.036Z,74.71
2017-05-05T02:30:59.223Z,75
2017-05-05T02:31:12.309Z,74.13
2017-05-05T02:31:24.971Z,74.23
2017-05-05T02:31:37.656Z,74.23
2017-05-05T02:31:50.783Z,74.43
2017-05-05T02:32:03.939Z,74.55
2017-05-05T02:32:15.524Z,74.27
2017-05-05T02:32:28.704Z,74.04
2017-05-05T02:32:42.180Z,74.13
2017-05-05T02:32:55.402Z,74.08
2017-05-05T02:33:08.051Z,74.17
2017-05-05T02:33:20.742Z,73.88
2017-05-05T02:33:33.888Z,73.75
2017-05-05T02:33:47.001Z,73.6
2017-05-05T02:34:00.163Z,73.21
2017-05-05T02:34:13.344Z,73.37
2017-05-05T02:34:26.508Z,73.18
2017-05-05T02:34:39.722Z,73.27
2017-05-05T02:34:52.904Z,72.64
2017-05-05T02:35:05.530Z,72.54
2017-05-05T02:35:18.651Z,72.69
2017-05-05T02:35:31.804Z,72.64
2017-05-05T02:35:44.923Z,72.73
2017-05-05T02:35:57.571Z,72.69
2017-05-05T02:36:10.214Z,72.69
2017-05-05T02:36:22.286Z,72.6
2017-05-05T02:36:35.406Z,72.44
2017-05-05T02:36:48.547Z,72.69
2017-05-05T02:37:01.713Z,72.54
2017-05-05T02:37:14.847Z,72.54
2017-05-05T02:37:27.490Z,72.44
2017-05-05T02:37:40.757Z,72.83
2017-05-05T02:37:53.930Z,72.99
2017-05-05T02:38:07.108Z,73.27
2017-05-05T02:38:20.281Z,73.46
2017-05-05T02:38:33.422Z,73.21
2017-05-05T02:38:46.580Z,73.56
2017-05-05T02:38:59.529Z,73.46
2017-05-05T02:39:11.295Z,73.31
2017-05-05T02:39:24.469Z,73.21
2017-05-05T02:39:37.598Z,73.27
2017-05-05T02:39:50.661Z,73.18
2017-05-05T02:40:03.833Z,73.08
2017-05-05T02:40:15.925Z,73.02
2017-05-05T02:40:28.605Z,72.92
2017-05-05T02:40:41.754Z,72.69
2017-05-05T02:40:54.960Z,72.73
2017-05-05T02:41:07.598Z,72.5
2017-05-05T02:41:20.304Z,72.79
2017-05-05T02:41:32.929Z,72.6
2017-05-05T02:41:46.076Z,72.6
2017-05-05T02:41:58.718Z,72.69
2017-05-05T02:42:11.861Z,72.89
2017-05-05T02:42:24.488Z,72.64
2017-05-05T02:42:37.684Z,72.69
2017-05-05T02:42:50.846Z,72.5
2017-05-05T02:43:03.959Z,72.6
2017-05-05T02:43:16.600Z,72.79
2017-05-05T02:43:29.737Z,72.73
2017-05-05T02:43:42.902Z,72.69
2017-05-05T02:43:56.060Z,72.79
2017-05-05T02:44:08.750Z,72.69
2017-05-05T02:44:21.898Z,72.6
2017-05-05T02:44:35.024Z,72.79
2017-05-05T02:44:48.170Z,72.41
2017-05-05T02:45:00.822Z,72.6
2017-05-05T02:45:13.991Z,72.64
2017-05-05T02:45:26.629Z,72.73
2017-05-05T02:45:39.735Z,72.64
2017-05-05T02:45:52.893Z,72.6
2017-05-05T02:46:06.004Z,72.6
2017-05-05T02:46:19.138Z,72.89
2017-05-05T02:46:32.223Z,72.79
2017-05-05T02:46:45.410Z,72.79
2017-05-05T02:46:58.621Z,72.6
2017-05-05T02:47:11.828Z,72.6
2017-05-05T02:47:24.033Z,72.41
2017-05-05T02:47:36.664Z,72.69